Time;durP1;ratioP1;P1;durP2;ratioP2;P2;SDS_P1;SDS_P2;PMS_P1;PMS_P2;Temp;Humidity;BMP_temperature;BMP_pressure;BME280_temperature;BME280_humidity;BME280_pressure;Samples;Min_cycle;Max_cycle;Signal;HPM_P1;HPM_P2
2023/06/10 00:01:38;;;;;;;20.38;12.80;;;;;;;21.75;53.55;101274.75;5094988;28;20024;-59
2023/06/10 00:04:04;;;;;;;19.63;12.48;;;;;;;21.73;53.40;101277.97;5094627;28;20028;-58
2023/06/10 00:06:35;;;;;;;20.85;12.88;;;;;;;21.71;53.07;101279.53;5094982;28;20024;-58
2023/06/10 00:09:04;;;;;;;19.65;12.60;;;;;;;21.64;53.76;101281.00;5094620;28;20024;-58
2023/06/10 00:11:33;;;;;;;20.42;13.30;;;;;;;21.60;53.87;101280.13;5094711;28;20480;-59
2023/06/10 00:13:59;;;;;;;20.60;12.88;;;;;;;21.60;53.93;101277.31;5093242;28;20495;-59
2023/06/10 00:16:25;;;;;;;21.13;13.07;;;;;;;21.55;54.02;101279.56;5094669;28;20043;-59
2023/06/10 00:18:51;;;;;;;21.60;13.20;;;;;;;21.54;54.27;101275.94;5094374;28;20028;-58
2023/06/10 00:21:17;;;;;;;22.17;12.82;;;;;;;21.50;54.55;101283.50;5094546;28;20076;-59
2023/06/10 00:23:42;;;;;;;22.50;13.55;;;;;;;21.47;54.79;101278.63;5094610;28;20024;-59
2023/06/10 00:26:08;;;;;;;21.45;13.45;;;;;;;21.46;54.31;101280.63;5094514;28;20073;-60
2023/06/10 00:28:33;;;;;;;20.52;13.57;;;;;;;21.40;54.68;101276.47;5093672;28;20032;-59
2023/06/10 00:30:58;;;;;;;21.48;13.32;;;;;;;21.34;54.81;101275.97;5094423;28;20059;-59
2023/06/10 00:33:24;;;;;;;21.05;13.27;;;;;;;21.31;54.87;101275.88;5094419;28;20490;-58
2023/06/10 00:35:49;;;;;;;21.15;13.32;;;;;;;21.28;55.08;101288.69;5094665;28;20086;-59
2023/06/10 00:38:15;;;;;;;21.25;13.32;;;;;;;21.17;55.44;101277.22;5094232;28;20406;-59
2023/06/10 00:40:41;;;;;;;20.35;13.38;;;;;;;21.11;55.80;101289.13;5094167;28;20031;-59
2023/06/10 00:43:07;;;;;;;20.77;13.90;;;;;;;21.11;55.67;101283.50;5094342;28;20093;-59
2023/06/10 00:45:32;;;;;;;21.05;13.60;;;;;;;21.08;55.85;101284.22;5093238;28;20024;-59
2023/06/10 00:47:59;;;;;;;21.65;14.25;;;;;;;21.06;56.06;101289.41;5094076;28;20024;-58
2023/06/10 00:50:25;;;;;;;20.73;13.27;;;;;;;21.00;56.03;101286.88;5093957;28;20116;-58
2023/06/10 00:52:51;;;;;;;21.80;14.15;;;;;;;20.94;56.26;101285.53;5094049;28;20024;-58
2023/06/10 00:55:17;;;;;;;21.13;14.23;;;;;;;20.95;56.38;101289.16;5093940;28;20024;-58
2023/06/10 00:57:45;;;;;;;21.17;14.13;;;;;;;20.84;56.82;101286.91;5094030;28;20055;-59
2023/06/10 01:00:12;;;;;;;22.63;13.55;;;;;;;20.83;56.64;101290.09;5090213;28;20040;-58
2023/06/10 01:02:37;;;;;;;21.83;13.60;;;;;;;20.81;56.40;101286.84;5093980;28;20026;-58
2023/06/10 01:05:03;;;;;;;20.63;13.30;;;;;;;20.72;57.38;101293.44;5093724;28;20024;-58
2023/06/10 01:07:37;;;;;;;20.13;13.45;;;;;;;20.69;56.83;101285.72;5093460;28;20038;-58
2023/06/10 01:10:09;;;;;;;;;;;;;;;20.76;55.28;101289.94;5094239;28;20054;-59
2023/06/10 01:12:35;;;;;;;;;;;;;;;20.72;55.02;101290.63;5094048;28;19912;-59
2023/06/10 01:15:01;;;;;;;;;;;;;;;20.70;55.59;101286.56;5094138;28;20337;-58
2023/06/10 01:17:26;;;;;;;;;;;;;;;20.65;56.96;101292.44;5093800;28;19930;-58
2023/06/10 01:19:55;;;;;;;;;;;;;;;20.60;56.29;101296.34;5093473;28;20379;-59
2023/06/10 01:22:22;;;;;;;;;;;;;;;20.53;57.60;101301.81;5093925;28;19927;-59
2023/06/10 01:24:50;;;;;;;;;;;;;;;20.47;57.66;101292.81;5094051;28;19912;-59
2023/06/10 01:27:18;;;;;;;;;;;;;;;20.45;57.62;101300.00;5093862;28;19919;-58
2023/06/10 01:29:45;;;;;;;;;;;;;;;20.42;57.46;101296.72;5093918;28;20010;-59
2023/06/10 01:32:18;;;;;;;;;;;;;;;20.40;58.23;101295.47;5093681;28;19930;-59
2023/06/10 01:34:44;;;;;;;;;;;;;;;20.38;57.09;101289.38;5093518;28;20010;-59
2023/06/10 01:37:12;;;;;;;;;;;;;;;20.31;58.79;101292.81;5093678;28;20339;-59
2023/06/10 01:39:38;;;;;;;;;;;;;;;20.25;59.13;101295.13;5093385;28;20007;-59
2023/06/10 01:42:03;;;;;;;;;;;;;;;20.20;58.67;101294.56;5093382;28;20013;-59
2023/06/10 01:44:29;;;;;;;;;;;;;;;20.17;58.44;101293.28;5093193;28;19912;-58
2023/06/10 01:46:54;;;;;;;;;;;;;;;20.16;58.90;101297.28;5093044;28;19918;-58
2023/06/10 01:49:19;;;;;;;;;;;;;;;20.12;58.61;101295.56;5093350;28;19947;-59
2023/06/10 01:51:44;;;;;;;;;;;;;;;20.09;58.98;101297.91;5093353;28;20011;-59
2023/06/10 01:54:10;;;;;;;;;;;;;;;20.02;60.24;101294.91;5091844;28;20011;-59
2023/06/10 01:56:35;;;;;;;;;;;;;;;19.99;59.16;101297.59;5093250;28;20294;-59
2023/06/10 01:59:00;;;;;;;;;;;;;;;19.95;59.49;101289.91;5092634;28;19928;-59
2023/06/10 02:01:25;;;;;;;;;;;;;;;19.93;60.42;101302.69;5090078;28;19965;-59
2023/06/10 02:03:51;;;;;;;;;;;;;;;19.90;59.73;101300.59;5093109;28;19911;-59
2023/06/10 02:06:16;;;;;;;;;;;;;;;19.85;60.23;101295.19;5092806;28;19923;-59
2023/06/10 02:08:41;;;;;;;;;;;;;;;19.84;60.30;101302.00;5092899;28;19912;-59
2023/06/10 02:11:07;;;;;;;;;;;;;;;19.82;59.75;101301.53;5092857;28;19912;-59
2023/06/10 02:13:32;;;;;;;;;;;;;;;19.78;61.24;101299.44;5093024;28;19912;-59
2023/06/10 02:15:57;;;;;;;;;;;;;;;19.75;61.07;101300.16;5092802;28;19923;-59
2023/06/10 02:18:22;;;;;;;;;;;;;;;19.71;61.70;101299.25;5092819;28;20011;-59
2023/06/10 02:20:48;;;;;;;;;;;;;;;19.67;59.20;101306.75;5092597;28;19923;-59
2023/06/10 02:23:13;;;;;;;;;;;;;;;19.63;61.57;101309.44;5092673;28;19912;-59
2023/06/10 02:25:39;;;;;;;;;;;;;;;19.60;60.57;101307.34;5092835;28;19919;-58
2023/06/10 02:28:05;;;;;;;;;;;;;;;19.58;61.16;101311.69;5092860;28;19916;-58
2023/06/10 02:30:30;;;;;;;;;;;;;;;19.54;62.16;101303.19;5092839;28;19950;-58
2023/06/10 02:32:56;;;;;;;;;;;;;;;19.51;61.87;101311.50;5092570;28;19938;-58
2023/06/10 02:35:22;;;;;;;;;;;;;;;19.46;61.93;101306.94;5092587;28;19970;-58
2023/06/10 02:37:47;;;;;;;;;;;;;;;19.47;60.69;101305.78;5092475;28;20202;-58
2023/06/10 02:40:13;;;;;;;;;;;;;;;19.43;63.26;101310.47;5092542;28;19923;-58
2023/06/10 02:42:38;;;;;;;;;;;;;;;19.37;62.26;101309.09;5092473;28;20413;-58
2023/06/10 02:45:03;;;;;;;;;;;;;;;19.34;61.42;101313.44;5092418;28;19912;-58
2023/06/10 02:47:28;;;;;;;;;;;;;;;19.33;62.03;101311.78;5092476;28;19962;-59
2023/06/10 02:49:54;;;;;;;;;;;;;;;19.30;63.71;101306.88;5092497;28;19912;-58
2023/06/10 02:52:20;;;;;;;;;;;;;;;19.24;62.41;101309.13;5095168;28;19986;-59
2023/06/10 02:54:45;;;;;;;;;;;;;;;19.21;63.33;101306.19;5098954;28;20026;-59
2023/06/10 02:57:10;;;;;;;;;;;;;;;19.15;61.99;101316.84;5099099;28;20422;-59
2023/06/10 02:59:36;;;;;;;;;;;;;;;19.13;65.06;101316.38;5095347;28;19920;-58
2023/06/10 03:02:01;;;;;;;;;;;;;;;19.08;64.38;101314.63;5098406;28;19912;-59
2023/06/10 03:04:28;;;;;;;;;;;;;;;19.03;63.97;101312.09;5099006;28;20382;-59
2023/06/10 03:06:54;;;;;;;;;;;;;;;19.00;65.26;101312.78;5099055;28;19962;-59
2023/06/10 03:09:19;;;;;;;;;;;;;;;18.93;63.85;101310.59;5098884;28;19954;-59
2023/06/10 03:11:44;;;;;;;;;;;;;;;18.90;66.19;101311.25;5098926;28;19918;-59
2023/06/10 03:14:09;;;;;;;;;;;;;;;18.85;65.88;101312.31;5099123;28;19943;-58
2023/06/10 03:16:35;;;;;;;;;;;;;;;18.84;66.09;101319.09;5098920;28;20006;-58
2023/06/10 03:19:00;;;;;;;;;;;;;;;18.81;65.42;101314.19;5098525;28;19923;-58
2023/06/10 03:21:26;;;;;;;;;;;;;;;18.80;64.85;101317.34;5098551;28;20070;-59
2023/06/10 03:23:51;;;;;;;;;;;;;;;18.79;63.06;101324.94;5098780;28;19908;-58
2023/06/10 03:26:21;;;;;;;;;;;;;;;18.75;61.72;101312.78;5098848;28;19924;-58
2023/06/10 03:28:46;;;;;;;;;;;;;;;18.75;66.23;101318.38;5098683;28;19990;-58
2023/06/10 03:31:11;;;;;;;;;;;;;;;18.73;66.57;101323.53;5098707;28;20015;-59
2023/06/10 03:33:37;;;;;;;;;;;;;;;18.69;65.46;101326.22;5098690;28;19912;-58
2023/06/10 03:36:02;;;;;;;;;;;;;;;18.71;66.33;101332.28;5098625;28;19911;-58
2023/06/10 03:38:27;;;;;;;;;;;;;;;18.69;66.46;101331.81;5097297;28;19923;-59
2023/06/10 03:40:53;;;;;;;;;;;;;;;18.68;65.40;101329.38;5098692;28;19912;-58
2023/06/10 03:43:18;;;;;;;;;;;;;;;18.68;66.24;101334.97;5098603;28;19912;-58
2023/06/10 03:45:43;;;;;;;;;;;;;;;18.69;66.79;101331.81;5098607;28;20303;-59
2023/06/10 03:48:09;;;;;;;;;;;;;;;18.83;67.58;101342.69;5098601;28;19922;-59
2023/06/10 03:50:35;;;;;;;;;;;;;;;19.01;64.72;101343.28;5098654;28;19962;-58
2023/06/10 03:53:00;;;;;;;;;;;;;;;19.19;64.77;101340.22;5098523;28;20003;-58
2023/06/10 03:55:26;;;;;;;;;;;;;;;19.22;64.77;101335.88;5098423;28;20003;-59
2023/06/10 03:57:51;;;;;;;;;;;;;;;19.15;64.91;101337.31;5098489;28;19923;-58
2023/06/10 04:00:17;;;;;;;;;;;;;;;19.09;61.88;101340.72;5094763;28;19947;-58
2023/06/10 04:02:45;;;;;;;;;;;;;;;19.03;63.66;101342.94;5098574;28;20012;-59
2023/06/10 04:05:15;;;;;;;;;;;;;;;18.97;65.52;101338.75;5094035;28;19915;-58
2023/06/10 04:07:42;;;;;;;;;;;;;;;18.97;63.16;101338.75;5095223;28;19912;-58
2023/06/10 04:10:07;;;;;;;;;;;;;;;18.95;63.72;101339.06;5095384;28;19912;-58
2023/06/10 04:12:33;;;;;;;;;;;;;;;18.91;64.70;101346.53;5095198;28;19919;-58
2023/06/10 04:14:58;;;;;;;;;;;;;;;18.88;64.75;101341.63;5095062;28;19912;-58
2023/06/10 04:17:23;;;;;;;;;;;;;;;18.87;64.79;101339.97;5094979;28;19922;-58
2023/06/10 04:19:48;;;;;;;;;;;;;;;18.85;65.84;101342.31;5095122;28;19935;-59
2023/06/10 04:22:14;;;;;;;;;;;;;;;18.82;65.79;101343.84;5094922;28;19969;-59
2023/06/10 04:24:39;;;;;;;;;;;;;;;18.84;65.46;101349.13;5093534;28;19911;-58
2023/06/10 04:27:05;;;;;;;;;;;;;;;18.82;64.78;101354.25;5094966;28;19912;-59
2023/06/10 04:29:30;;;;;;;;;;;;;;;18.82;64.09;101349.44;5094891;28;20320;-59
2023/06/10 04:31:55;;;;;;;;;;;;;;;18.89;63.62;101359.28;5095148;28;20325;-58
2023/06/10 04:34:21;;;;;;;;;;;;;;;18.94;64.92;101359.88;5094726;28;19916;-59
2023/06/10 04:36:46;;;;;;;;;;;;;;;18.98;63.78;101362.81;5094823;28;19931;-58
2023/06/10 04:39:11;;;;;;;;;;;;;;;18.97;64.25;101364.78;5094709;28;19912;-58
2023/06/10 04:41:36;;;;;;;;;;;;;;;19.02;63.58;101370.16;5094652;28;19916;-59
2023/06/10 04:44:02;;;;;;;;;;;;;;;19.02;64.53;101374.94;5094375;28;19916;-58
2023/06/10 04:46:27;;;;;;;;;;;;;;;19.08;64.75;101361.50;5094412;28;19965;-58
2023/06/10 04:48:54;;;;;;;;;;;;;;;19.12;65.03;101366.06;5094263;28;20551;-58
2023/06/10 04:51:19;;;;;;;;;;;;;;;19.18;64.62;101358.22;5093975;28;20046;-58
2023/06/10 04:53:44;;;;;;;;;;;;;;;19.23;63.36;101360.75;5094287;28;20006;-58
2023/06/10 04:56:10;;;;;;;;;;;;;;;19.29;64.86;101366.94;5094037;28;19912;-58
2023/06/10 04:58:35;;;;;;;;;;;;;;;19.30;62.96;101363.81;5094047;28;20352;-58
2023/06/10 05:01:01;;;;;;;;;;;;;;;19.37;63.91;101368.81;5090598;28;20004;-58
2023/06/10 05:03:27;;;;;;;;;;;;;;;19.40;64.56;101370.09;5092564;28;19970;-59
2023/06/10 05:05:52;;;;;;;;;;;;;;;19.44;63.82;101369.03;5093928;28;20328;-58
2023/06/10 05:08:18;;;;;;;;;;;;;;;19.50;63.87;101369.63;5092523;28;19916;-58
2023/06/10 05:10:43;;;;;;;;;;;;;;;19.56;62.09;101367.34;5093976;28;19912;-58
2023/06/10 05:13:08;;;;;;;;;;;;;;;19.67;64.42;101365.69;5093616;28;20417;-58
2023/06/10 05:15:33;;;;;;;;;;;;;;;19.71;63.30;101366.63;5093679;28;19912;-58
2023/06/10 05:17:59;;;;;;;;;;;;;;;19.79;63.21;101367.63;5093540;28;19927;-58
2023/06/10 05:20:25;;;;;;;;;;;;;;;19.82;62.99;101371.72;5093979;28;19965;-58
2023/06/10 05:22:50;;;;;;;;;;;;;;;19.85;61.98;101371.00;5093790;28;19927;-58
2023/06/10 05:25:15;;;;;;;;;;;;;;;19.90;62.89;101377.22;5093619;28;19912;-58
2023/06/10 05:27:41;;;;;;;;;;;;;;;19.98;62.20;101375.44;5093500;28;19958;-58
2023/06/10 05:30:07;;;;;;;;;;;;;;;20.02;62.60;101381.97;5093761;28;19912;-59
2023/06/10 05:32:32;;;;;;;;;;;;;;;20.04;62.97;101376.78;5093658;28;19912;-58
2023/06/10 05:34:59;;;;;;;;;;;;;;;20.08;62.86;101371.28;5093512;28;20376;-59
2023/06/10 05:37:25;;;;;;;;;;;;;;;20.18;61.74;101370.75;5093459;28;19916;-59
2023/06/10 05:39:51;;;;;;;;;;;;;;;20.26;62.03;101371.78;5093659;28;19943;-58
2023/06/10 05:42:16;;;;;;;;;;;;;;;20.32;61.08;101367.50;5093527;28;19916;-59
2023/06/10 05:44:41;;;;;;;;;;;;;;;20.32;61.75;101373.13;5093422;28;19955;-58
2023/06/10 05:47:06;;;;;;;;;;;;;;;20.36;61.08;101370.41;5093293;28;19923;-59
2023/06/10 05:49:31;;;;;;;;;;;;;;;20.39;61.71;101376.16;5093196;28;20417;-59
2023/06/10 05:51:58;;;;;;;;;;;;;;;20.40;61.18;101379.75;5093069;28;19919;-58
2023/06/10 05:54:24;;;;;;;;;;;;;;;20.42;61.08;101377.41;5093314;28;19965;-58
2023/06/10 05:56:49;;;;;;;;;;;;;;;20.47;60.82;101374.31;5089062;28;19912;-58
2023/06/10 05:59:14;;;;;;;;;;;;;;;20.56;60.11;101379.78;5093077;28;19916;-58
2023/06/10 06:01:39;;;;;;;;;;;;;;;20.69;60.26;101375.69;5092993;28;20283;-59
2023/06/10 06:04:05;;;;;;;;;;;;;;;20.70;59.95;101374.50;5092952;28;20398;-59
2023/06/10 06:06:30;;;;;;;;;;;;;;;20.69;60.16;101372.06;5092918;28;19985;-59
2023/06/10 06:08:55;;;;;;;;;;;;;;;20.75;59.74;101381.88;5092934;28;19942;-59
2023/06/10 06:11:20;;;;;;;;;;;;;;;20.79;60.00;101385.63;5093084;28;19945;-59
2023/06/10 06:13:48;;;;;;;;;;;;;;;20.82;59.32;101384.91;5093021;28;20291;-59
2023/06/10 06:16:13;;;;;;;;;;;;;;;20.86;58.98;101380.16;5092954;28;20406;-59
2023/06/10 06:18:38;;;;;;;;;;;;;;;20.96;59.33;101381.63;5091378;28;20006;-59
2023/06/10 06:21:03;;;;;;;;;;;;;;;21.09;59.12;101381.47;5092660;28;19926;-59
2023/06/10 06:23:30;;;;;;;;;;;;;;;21.18;58.43;101376.47;5092695;28;19934;-59
2023/06/10 06:25:55;;;;;;;;;;;;;;;21.19;58.33;101378.09;5092855;28;20333;-59
2023/06/10 06:28:22;;;;;;;;;;;;;;;21.26;58.13;101388.72;5092132;28;19912;-60
2023/06/10 06:30:47;;;;;;;;;;;;;;;21.28;57.99;101378.72;5092634;28;20327;-59
2023/06/10 06:33:12;;;;;;;;;;;;;;;21.38;57.74;101376.50;5092552;28;20011;-59
2023/06/10 06:35:38;;;;;;;;;;;;;;;21.49;57.36;101383.22;5092630;28;20321;-59
2023/06/10 06:38:04;;;;;;;;;;;;;;;21.59;57.10;101387.44;5092707;28;19918;-59
2023/06/10 06:40:29;;;;;;;;;;;;;;;21.64;56.09;101387.19;5092687;28;19962;-60
2023/06/10 06:42:54;;;;;;;;;;;;;;;21.65;55.68;101386.78;5092573;28;19916;-59
2023/06/10 06:45:19;;;;;;;;;;;;;;;21.68;56.07;101393.69;5092718;28;19916;-59
2023/06/10 06:47:45;;;;;;;;;;;;;;;21.68;56.03;101390.06;5092564;28;20272;-60
2023/06/10 06:50:10;;;;;;;;;;;;;;;21.71;55.87;101387.31;5091828;28;20448;-59
2023/06/10 06:52:35;;;;;;;;;;;;;;;21.75;56.35;101391.03;5088127;28;20394;-59
2023/06/10 06:55:00;;;;;;;;;;;;;;;21.87;55.89;101397.72;5092633;28;20148;-60
2023/06/10 06:57:25;;;;;;;;;;;;;;;21.98;55.19;101395.91;5081242;28;19920;-59
2023/06/10 06:59:51;;;;;;;;;;;;;;;22.03;55.46;101392.81;5074104;28;19925;-59
2023/06/10 07:02:16;;;;;;;;;;;;;;;22.11;55.55;101390.94;5071948;28;19986;-60
2023/06/10 07:04:41;;;;;;;;;;;;;;;22.19;55.76;101394.72;5071982;28;19916;-60
2023/06/10 07:07:08;;;;;;;;;;;;;;;22.26;54.94;101392.03;5087004;28;19920;-61
2023/06/10 07:09:33;;;;;;;;;;;;;;;22.31;55.03;101397.38;5092494;28;19920;-61
2023/06/10 07:11:58;;;;;;;;;;;;;;;22.43;55.42;101399.22;5092368;28;20325;-62
2023/06/10 07:14:23;;;;;;;;;;;;;;;22.54;54.57;101400.22;5092449;28;19912;-60
2023/06/10 07:16:49;;;;;;;;;;;;;;;22.63;54.75;101401.97;5092382;28;19958;-61
2023/06/10 07:19:14;;;;;;;;;;;;;;;22.73;54.29;101402.16;5092209;28;19920;-61
2023/06/10 07:21:40;;;;;;;;;;;;;;;22.76;52.92;101406.25;5092600;28;19912;-61
2023/06/10 07:24:05;;;;;;;;;;;;;;;22.73;53.85;101404.97;5092369;28;19912;-61
2023/06/10 07:26:30;;;;;;;;;;;;;;;22.85;54.13;101409.63;5092285;28;19912;-61
2023/06/10 07:28:56;;;;;;;;;;;;;;;22.94;53.52;101406.53;5090921;28;19912;-60
2023/06/10 07:31:21;;;;;;;;;;;;;;;23.07;53.46;101409.94;5092360;28;19916;-61
2023/06/10 07:33:46;;;;;;;;;;;;;;;23.18;53.04;101410.16;5083372;28;20050;-61
2023/06/10 07:36:11;;;;;;;;;;;;;;;23.11;51.86;101408.03;5072002;28;19912;-61
2023/06/10 07:38:37;;;;;;;;;;;;;;;23.07;52.50;101412.78;5073573;28;19966;-61
2023/06/10 07:41:02;;;;;;;;;;;;;;;23.14;52.83;101415.72;5075631;28;19916;-61
2023/06/10 07:43:27;;;;;;;;;;;;;;;23.27;52.82;101415.53;5075610;28;19919;-61
2023/06/10 07:45:52;;;;;;;;;;;;;;;23.43;52.66;101409.72;5073382;28;20567;-60
2023/06/10 07:48:17;;;;;;;;;;;;;;;23.57;51.79;101414.75;5074113;28;19942;-60
2023/06/10 07:50:43;;;;;;;;;;;;;;;23.57;51.30;101404.25;5075617;28;19966;-61
2023/06/10 07:53:08;;;;;;;;;;;;;;;23.62;50.83;101418.06;5075427;28;19912;-61
2023/06/10 07:55:33;;;;;;;;;;;;;;;23.64;51.31;101409.19;5075546;28;19912;-61
2023/06/10 07:57:58;;;;;;;;;;;;;;;23.70;51.28;101412.50;5074277;28;19923;-61
2023/06/10 08:00:24;;;;;;;;;;;;;;;23.83;50.40;101405.41;5075419;28;20368;-61
2023/06/10 08:02:50;;;;;;;;;;;;;;;23.93;49.99;101409.56;5075347;28;20360;-61
2023/06/10 08:05:15;;;;;;;;;;;;;;;23.98;50.25;101398.75;5075053;28;19916;-62
2023/06/10 08:07:40;;;;;;;;;;;;;;;24.07;50.01;101398.47;5074922;28;20406;-61
2023/06/10 08:10:06;;;;;;;;;;;;;;;24.23;49.08;101406.69;5074630;28;20368;-60
2023/06/10 08:12:32;;;;;;;;;;;;;;;24.27;48.20;101409.59;5074820;28;19916;-60
2023/06/10 08:14:57;;;;;;;;;;;;;;;24.37;49.11;101405.22;5074956;28;19912;-61
2023/06/10 08:17:23;;;;;;;;;;;;;;;24.49;49.10;101406.97;5075019;28;19999;-61
2023/06/10 08:19:48;;;;;;;;;;;;;;;24.65;48.69;101406.72;5074721;28;19923;-61
2023/06/10 08:22:14;;;;;;;;;;;;;;;24.73;47.76;101409.25;5074624;28;20003;-61
2023/06/10 08:24:39;;;;;;;;;;;;;;;24.85;47.37;101407.31;5077226;28;19919;-61
2023/06/10 08:27:05;;;;;;;;;;;;;;;24.99;47.87;101400.94;5086132;28;19916;-61
2023/06/10 08:29:31;;;;;;;;;;;;;;;25.09;46.03;101405.88;5082637;28;19912;-61
2023/06/10 08:31:57;;;;;;;;;;;;;;;25.17;46.08;101412.41;5095086;28;20306;-61
2023/06/10 08:34:22;;;;;;;;;;;;;;;25.26;46.38;101412.88;5094816;28;20009;-60
2023/06/10 08:36:52;;;;;;;;;;;;;;;25.37;46.59;101407.25;5094459;28;19918;-61
2023/06/10 08:39:18;;;;;;;;;;;;;;;25.47;44.82;101398.06;5094974;28;19916;-61
2023/06/10 08:41:44;;;;;;;;;;;;;;;25.54;45.13;101414.28;5091173;28;19969;-61
2023/06/10 08:44:18;;;;;;;;;;;;;;;25.47;44.81;101403.72;5094861;28;19919;-61
2023/06/10 08:46:44;;;;;;;;;;;;;;;25.42;43.41;101415.44;5094848;28;19912;-61
2023/06/10 08:49:10;;;;;;;;;;;;;;;25.41;43.56;101410.97;5094603;28;20363;-61
2023/06/10 08:51:38;;;;;;;;;;;;;;;25.52;43.93;101405.34;5093980;28;19964;-61
2023/06/10 08:54:11;;;;;;;;;;;;;;;25.66;43.48;101411.13;5094642;28;19987;-61
2023/06/10 08:56:39;;;;;;;;;;;;;;;25.73;42.26;101412.34;5093240;28;19912;-61
2023/06/10 08:59:05;;;;;;;;;;;;;;;25.76;43.33;101411.56;5094309;28;19951;-61
2023/06/10 09:01:30;;;;;;;;;;;;;;;25.79;42.04;101410.78;5094157;28;19955;-61
2023/06/10 09:03:56;;;;;;;;;;;;;;;25.88;43.45;101413.22;5094308;28;19912;-61
2023/06/10 09:06:21;;;;;;;;;;;;;;;25.94;42.56;101406.78;5094267;28;20341;-61
2023/06/10 09:08:47;;;;;;;;;;;;;;;25.99;43.20;101414.09;5094105;28;20359;-61
2023/06/10 09:11:12;;;;;;;;;;;;;;;26.14;43.06;101409.31;5094203;28;19919;-61
2023/06/10 09:13:37;;;;;;;;;;;;;;;26.24;42.88;101407.69;5093922;28;19911;-61
2023/06/10 09:16:03;;;;;;;;;;;;;;;26.37;41.31;101403.28;5094125;28;19918;-61
2023/06/10 09:18:28;;;;;;;;;;;;;;;26.51;42.19;101401.66;5093931;28;20386;-61
2023/06/10 09:20:53;;;;;;;;;;;;;;;26.63;40.96;101407.78;5093893;28;20030;-62
2023/06/10 09:23:18;;;;;;;;;;;;;;;26.70;40.78;101408.97;5093747;28;19988;-59
2023/06/10 09:25:43;;;;;;;;;;;;;;;26.80;41.21;101405.38;5093767;28;19912;-60
2023/06/10 09:28:12;;;;;;;;;;;;;;;26.89;40.05;101407.78;5093896;28;19947;-59
2023/06/10 09:30:38;;;;;;;;;;;;;;;27.01;39.26;101398.84;5093510;28;19915;-59
2023/06/10 09:33:09;;;;;;;;;;;;;;;27.17;40.30;101404.13;5093879;28;20385;-60
2023/06/10 09:35:34;;;;;;;;;;;;;;;27.40;39.56;101400.00;5093575;28;19972;-60
2023/06/10 09:38:00;;;;;;;;;;;;;;;27.56;40.19;101402.41;5093771;28;20363;-60
2023/06/10 09:40:26;;;;;;;;;;;;;;;27.71;39.95;101400.34;5084578;28;19950;-60
2023/06/10 09:42:55;;;;;;;;;;;;;;;27.78;39.11;101405.19;5079491;28;19927;-61
2023/06/10 09:45:21;;;;;;;;;;;;;;;27.79;39.58;101407.59;5076165;28;19916;-60
2023/06/10 09:47:47;;;;;;;;;;;;;;;27.80;37.70;101397.06;5083017;28;20287;-60
2023/06/10 09:50:12;;;;;;;;;;;;;;;27.89;37.64;101396.59;5081279;28;19939;-61
2023/06/10 09:52:38;;;;;;;;;;;;;;;27.97;38.57;101401.84;5083156;28;20343;-60
2023/06/10 09:55:03;;;;;;;;;;;;;;;27.93;38.41;101392.50;5084344;28;19920;-61
2023/06/10 09:57:33;;;;;;;;;;;;;;;28.03;37.95;101399.38;5086356;28;19912;-61
2023/06/10 09:59:58;;;;;;;;;;;;;;;28.16;38.60;101396.91;5089792;28;19998;-62
2023/06/10 10:02:23;;;;;;;;;;;;;;;28.22;37.58;101385.91;5090816;28;19975;-61
2023/06/10 10:04:48;;;;;;;;;;;;;;;28.35;38.07;101389.06;5092015;28;20353;-61
2023/06/10 10:07:14;;;;;;;;;;;;;;;28.46;37.10;101379.22;5091954;28;19919;-61
2023/06/10 10:09:40;;;;;;;;;;;;;;;28.47;36.97;101383.69;5091984;28;19917;-61
2023/06/10 10:12:08;;;;;;;;;;;;;;;28.45;36.90;101379.63;5090660;28;19931;-61
2023/06/10 10:14:35;;;;;;;;;;;;;;;28.48;37.17;101382.44;5092259;28;19915;-61
2023/06/10 10:17:02;;;;;;;;;;;;;;;28.60;36.78;101383.19;5092079;28;19947;-61
2023/06/10 10:19:28;;;;;;;;;;;;;;;28.70;36.77;101387.97;5091994;28;19916;-61
2023/06/10 10:21:57;;;;;;;;;;;;;;;28.72;37.88;101370.50;5092783;28;19962;-61
2023/06/10 10:24:26;;;;;;;;;;;;;;;28.83;37.81;101379.75;5092833;28;19916;-61
2023/06/10 10:26:54;;;;;;;;;;;;;;;28.84;38.00;101372.84;5092733;28;19912;-61
2023/06/10 10:29:23;;;;;;;;;;;;;;;28.76;36.03;101380.63;5092887;28;20363;-61
2023/06/10 10:31:50;;;;;;;;;;;;;;;28.78;37.38;101371.66;5092916;28;19912;-61
2023/06/10 10:34:17;;;;;;;;;;;;;;;28.93;37.51;101373.16;5091438;28;20034;-61
2023/06/10 10:36:42;;;;;;;;;;;;;;;29.02;36.44;101372.66;5092741;28;20081;-61
2023/06/10 10:39:08;;;;;;;;;;;;;;;29.05;37.56;101366.13;5092603;28;19912;-61
2023/06/10 10:41:36;;;;;;;;;;;;;;;29.22;35.11;101372.03;5092582;28;19999;-61
2023/06/10 10:44:01;;;;;;;;;;;;;;;29.25;35.27;101368.34;5092676;28;20375;-61
2023/06/10 10:46:26;;;;;;;;;;;;;;;29.28;35.16;101364.66;5092881;28;19912;-61
2023/06/10 10:48:53;;;;;;;;;;;;;;;29.23;34.12;101365.13;5092953;28;19968;-61
2023/06/10 10:51:18;;;;;;;;;;;;;;;29.32;35.93;101362.59;5092833;28;19919;-61
2023/06/10 10:53:44;;;;;;;;;;;;;;;29.46;36.03;101366.53;5092815;28;19912;-61
2023/06/10 10:56:13;;;;;;;;;;;;;;;29.64;35.71;101355.72;5092855;28;19916;-61
2023/06/10 10:58:38;;;;;;;;;;;;;;;29.59;34.06;101353.31;5072475;28;19916;-62
2023/06/10 11:01:10;;;;;;;;;;;;;;;29.60;35.86;101357.78;5072797;28;20475;-61
2023/06/10 11:03:41;;;;;;;;;;;;;;;29.69;34.43;101360.13;5072614;28;19912;-61
2023/06/10 11:06:11;;;;;;;;;;;;;;;29.76;35.02;101350.69;5072422;28;20394;-61
2023/06/10 11:08:39;;;;;;;;;;;;;;;29.84;32.91;101349.34;5072470;28;19912;-61
2023/06/10 11:11:18;;;;;;;;;;;;;;;29.97;34.40;101352.44;5072386;28;19913;-62
2023/06/10 11:13:57;;;;;;;;;;;;;;;30.02;33.35;101349.91;5074221;28;19938;-61
2023/06/10 11:16:25;;;;;;;;;;;;;;;29.81;31.57;101359.53;5075211;28;19973;-61
2023/06/10 11:18:53;;;;;;;;;;;;;;;29.86;33.75;101344.00;5076142;28;19943;-61
2023/06/10 11:21:18;;;;;;;;;;;;;;;30.06;33.44;101344.16;5076450;28;19916;-61
2023/06/10 11:23:43;;;;;;;;;;;;;;;30.11;33.06;101346.50;5076029;28;20399;-61
2023/06/10 11:26:10;;;;;;;;;;;;;;;30.15;31.81;101347.28;5076312;28;19978;-61
2023/06/10 11:28:36;;;;;;;;;;;;;;;30.07;33.18;101334.38;5076155;28;19958;-61
2023/06/10 11:31:01;;;;;;;;;;;;;;;30.20;32.63;101343.13;5076067;28;19912;-62
2023/06/10 11:33:26;;;;;;;;;;;;;;;30.30;33.05;101336.44;5076028;28;19919;-62
2023/06/10 11:35:52;;;;;;;;;;;;;;;30.52;31.99;101332.44;5076008;28;19965;-61
2023/06/10 11:38:18;;;;;;;;;;;;;;;30.69;31.94;101333.41;5076076;28;19965;-61
2023/06/10 11:40:50;;;;;;;;;;;;;;;30.75;30.41;101338.16;5076121;28;19912;-62
2023/06/10 11:43:16;;;;;;;;;;;;;;;30.55;30.28;101338.09;5076065;28;20006;-61
2023/06/10 11:45:42;;;;;;;;;;;;;;;30.52;31.23;101330.41;5081213;28;19923;-62
2023/06/10 11:48:07;;;;;;;;;;;;;;;30.48;31.69;101333.28;5096106;28;19916;-61
2023/06/10 11:50:33;;;;;;;;;;;;;;;30.40;30.24;101328.16;5095974;28;19916;-62
2023/06/10 11:52:58;;;;;;;;;;;;;;;30.25;30.29;101336.13;5096177;28;20290;-62
2023/06/10 11:55:26;;;;;;;;;;;;;;;30.11;30.62;101328.59;5095949;28;19912;-61
2023/06/10 11:57:57;;;;;;;;;;;;;;;30.19;30.16;101332.97;5111477;28;19934;-61
2023/06/10 12:00:22;;;;;;;;;;;;;;;30.29;30.36;101320.56;5096284;28;19923;-61
2023/06/10 12:02:55;;;;;;;;;;;;;;;30.34;30.25;101322.13;5095996;28;19991;-61
2023/06/10 12:05:20;;;;;;;;;;;;;;;30.33;31.10;101309.09;5077725;28;19969;-61
2023/06/10 12:07:45;;;;;;;;;;;;;;;30.29;30.86;101312.00;5095797;28;19916;-61
2023/06/10 12:10:11;;;;;;;;;;;;;;;30.42;31.39;101311.41;5095698;28;20322;-61
2023/06/10 12:12:36;;;;;;;;;;;;;;;30.65;31.90;101308.56;5095660;28;19912;-61
2023/06/10 12:15:03;;;;;;;;;;;;;;;30.88;30.54;101312.63;5095615;28;20014;-62
2023/06/10 12:17:31;;;;;;;;;;;;;;;30.96;30.76;101310.44;5095889;28;19916;-61
2023/06/10 12:19:57;;;;;;;;;;;;;;;30.99;30.24;101303.03;5094107;28;20008;-61
2023/06/10 12:22:24;;;;;;;;;;;;;;;31.17;30.23;101308.44;5095740;28;19962;-61